createdAt,value
2017-12-15T00:00:06.525Z,931.22
2017-12-15T00:01:06.509Z,931.22
2017-12-15T00:02:06.492Z,931.21
2017-12-15T00:03:06.475Z,931.15
2017-12-15T00:04:06.459Z,931.15
2017-12-15T00:05:06.441Z,931.1
2017-12-15T00:06:06.423Z,931.13
2017-12-15T00:07:06.404Z,931.13
2017-12-15T00:08:06.385Z,931.05
2017-12-15T00:09:06.371Z,931.06
2017-12-15T00:10:06.352Z,931.03
2017-12-15T00:11:06.336Z,930.97
2017-12-15T00:12:06.318Z,930.93
2017-12-15T00:13:06.301Z,930.89
2017-12-15T00:14:06.282Z,930.91
2017-12-15T00:15:06.265Z,930.87
2017-12-15T00:16:06.250Z,930.78
2017-12-15T00:17:06.231Z,930.8
2017-12-15T00:18:06.228Z,930.74
2017-12-15T00:19:06.202Z,930.7
2017-12-15T00:20:06.180Z,930.74
2017-12-15T00:21:06.161Z,930.73
2017-12-15T00:22:06.144Z,930.73
2017-12-15T00:23:06.127Z,930.76
2017-12-15T00:24:06.112Z,930.78
2017-12-15T00:25:06.092Z,930.7
2017-12-15T00:26:06.076Z,930.68
2017-12-15T00:27:06.060Z,930.63
2017-12-15T00:28:06.040Z,930.64
2017-12-15T00:29:06.023Z,930.63
2017-12-15T00:30:06.006Z,930.63
2017-12-15T00:31:05.988Z,930.6
2017-12-15T00:32:05.973Z,930.64
2017-12-15T00:33:05.953Z,930.6
2017-12-15T00:34:05.938Z,930.67
2017-12-15T00:35:05.927Z,930.66
2017-12-15T00:36:05.922Z,930.69
2017-12-15T00:37:05.885Z,930.59
2017-12-15T00:38:05.866Z,930.62
2017-12-15T00:39:05.907Z,930.55
2017-12-15T00:40:05.835Z,930.53
2017-12-15T00:41:05.816Z,930.51
2017-12-15T00:42:05.799Z,930.49
2017-12-15T00:43:05.782Z,930.47
2017-12-15T00:44:05.764Z,930.49
2017-12-15T00:45:05.746Z,930.53
2017-12-15T00:46:05.729Z,930.46
2017-12-15T00:47:05.712Z,930.42
2017-12-15T00:48:05.695Z,930.39
2017-12-15T00:49:05.700Z,930.36
2017-12-15T00:50:05.662Z,930.38
2017-12-15T00:51:05.642Z,930.36
2017-12-15T00:52:05.626Z,930.34
2017-12-15T00:53:05.609Z,930.29
2017-12-15T00:54:05.594Z,930.32
2017-12-15T00:55:05.574Z,930.28
2017-12-15T00:56:05.555Z,930.27
2017-12-15T00:57:05.540Z,930.24
2017-12-15T00:58:05.545Z,930.24
2017-12-15T00:59:05.505Z,930.34
2017-12-15T01:00:05.487Z,930.33
2017-12-15T01:01:05.470Z,930.42
2017-12-15T01:02:05.453Z,930.41
2017-12-15T01:03:05.435Z,930.38
2017-12-15T01:04:05.420Z,930.37
2017-12-15T01:05:05.421Z,930.29
2017-12-15T01:06:05.385Z,930.31
2017-12-15T01:07:05.369Z,930.36
2017-12-15T01:08:05.350Z,930.4
2017-12-15T01:09:05.332Z,930.45
2017-12-15T01:10:05.315Z,930.42
2017-12-15T01:11:05.298Z,930.46
2017-12-15T01:12:05.283Z,930.41
2017-12-15T01:13:05.262Z,930.32
2017-12-15T01:14:05.246Z,930.28
2017-12-15T01:15:05.237Z,930.28
2017-12-15T01:16:05.265Z,930.34
2017-12-15T01:17:05.195Z,930.4
2017-12-15T01:18:05.177Z,930.48
2017-12-15T01:19:05.161Z,930.46
2017-12-15T01:20:05.142Z,930.38
2017-12-15T01:21:05.128Z,930.31
2017-12-15T01:22:05.109Z,930.35
2017-12-15T01:23:05.092Z,930.36
2017-12-15T01:24:05.074Z,930.4
2017-12-15T01:25:05.056Z,930.42
2017-12-15T01:26:05.041Z,930.33
2017-12-15T01:27:05.022Z,930.16
2017-12-15T01:28:05.004Z,929.9
2017-12-15T01:29:04.989Z,929.71
2017-12-15T01:30:04.972Z,929.63
2017-12-15T01:31:04.954Z,929.7
2017-12-15T01:32:05.001Z,929.79
2017-12-15T01:33:04.920Z,929.78
2017-12-15T01:34:04.910Z,929.68
2017-12-15T01:35:04.885Z,929.57
2017-12-15T01:36:04.868Z,929.48
2017-12-15T01:37:04.869Z,929.5
2017-12-15T01:38:04.832Z,929.55
2017-12-15T01:39:04.816Z,929.7
2017-12-15T01:40:04.801Z,929.73
2017-12-15T01:41:04.784Z,929.85
2017-12-15T01:42:04.765Z,929.89
2017-12-15T01:43:04.748Z,929.8
2017-12-15T01:44:04.731Z,929.75
2017-12-15T01:45:04.712Z,929.74
2017-12-15T01:46:04.695Z,929.66
2017-12-15T01:47:04.679Z,929.69
2017-12-15T01:48:04.661Z,929.7
2017-12-15T01:49:04.642Z,929.78
2017-12-15T01:50:04.635Z,929.71
2017-12-15T01:51:04.610Z,929.81
2017-12-15T01:52:04.592Z,929.86
2017-12-15T01:53:04.574Z,929.86
2017-12-15T01:54:04.556Z,929.87
2017-12-15T01:55:04.561Z,929.89
2017-12-15T01:56:04.522Z,929.86
2017-12-15T01:57:04.504Z,929.9
2017-12-15T01:58:04.487Z,929.85
2017-12-15T01:59:04.487Z,929.93
2017-12-15T02:00:04.451Z,929.87
2017-12-15T02:01:04.435Z,929.9
2017-12-15T02:02:04.419Z,929.95
2017-12-15T02:03:04.400Z,929.99
2017-12-15T02:04:04.382Z,930.06
2017-12-15T02:05:04.366Z,930.03
2017-12-15T02:06:04.348Z,930.03
2017-12-15T02:07:04.330Z,930.04
2017-12-15T02:08:04.310Z,930.08
2017-12-15T02:09:04.295Z,930.01
2017-12-15T02:10:04.282Z,930.02
2017-12-15T02:11:04.259Z,930.03
2017-12-15T02:12:04.248Z,930.06
2017-12-15T02:13:04.225Z,930.05
2017-12-15T02:14:04.206Z,930.15
2017-12-15T02:15:04.188Z,930.16
2017-12-15T02:16:04.173Z,930.08
2017-12-15T02:17:04.157Z,930.05
2017-12-15T02:18:04.136Z,929.97
2017-12-15T02:19:04.119Z,929.95
2017-12-15T02:20:04.102Z,929.94
2017-12-15T02:21:04.086Z,929.96
2017-12-15T02:22:04.066Z,929.95
2017-12-15T02:23:04.050Z,929.95
2017-12-15T02:24:04.033Z,930.03
2017-12-15T02:25:04.017Z,930.08
2017-12-15T02:26:03.999Z,930.1
2017-12-15T02:27:03.987Z,930.08
2017-12-15T02:28:03.963Z,930.03
2017-12-15T02:29:03.943Z,930.09
2017-12-15T02:30:03.928Z,930.11
2017-12-15T02:31:03.911Z,930.09
2017-12-15T02:32:03.893Z,930.04
2017-12-15T02:33:03.876Z,929.99
2017-12-15T02:34:03.858Z,930
2017-12-15T02:35:03.841Z,930.05
2017-12-15T02:36:03.823Z,930.07
2017-12-15T02:37:03.808Z,930.01
2017-12-15T02:38:03.790Z,929.97
2017-12-15T02:39:03.773Z,929.96
2017-12-15T02:40:03.754Z,929.95
2017-12-15T02:41:03.750Z,929.94
2017-12-15T02:42:03.720Z,929.96
2017-12-15T02:43:03.703Z,929.95
2017-12-15T02:44:03.686Z,929.92
2017-12-15T02:45:03.670Z,929.87
2017-12-15T02:46:03.651Z,929.88
2017-12-15T02:47:03.633Z,929.8
2017-12-15T02:48:03.616Z,929.69
2017-12-15T02:49:03.600Z,929.63
2017-12-15T02:50:03.582Z,929.55
2017-12-15T02:51:03.564Z,929.48
2017-12-15T02:52:03.547Z,929.48
2017-12-15T02:53:03.532Z,929.45
2017-12-15T02:54:03.512Z,929.51
2017-12-15T02:55:03.495Z,929.57
2017-12-15T02:56:03.499Z,929.69
2017-12-15T02:57:03.462Z,929.67
2017-12-15T02:58:03.443Z,929.74
2017-12-15T02:59:03.427Z,929.78
2017-12-15T03:00:03.443Z,929.77
2017-12-15T03:01:03.392Z,929.84
2017-12-15T03:02:03.375Z,929.81
2017-12-15T03:03:03.358Z,929.81
2017-12-15T03:04:03.343Z,929.8
2017-12-15T03:05:03.332Z,929.76
2017-12-15T03:06:03.304Z,929.68
2017-12-15T03:07:03.288Z,929.65
2017-12-15T03:08:03.272Z,929.58
2017-12-15T03:09:03.253Z,929.56
2017-12-15T03:10:03.240Z,929.51
2017-12-15T03:11:03.226Z,929.46
2017-12-15T03:12:03.204Z,929.48
2017-12-15T03:13:03.185Z,929.45
2017-12-15T03:14:03.171Z,929.51
2017-12-15T03:15:03.153Z,929.52
2017-12-15T03:16:03.136Z,929.57
2017-12-15T03:17:03.123Z,929.53
2017-12-15T03:18:03.110Z,929.48
2017-12-15T03:19:03.086Z,929.48
2017-12-15T03:20:03.067Z,929.45
2017-12-15T03:21:03.051Z,929.55
2017-12-15T03:22:03.035Z,929.55
2017-12-15T03:23:03.015Z,929.58
2017-12-15T03:24:02.998Z,929.62
2017-12-15T03:25:02.992Z,929.73
2017-12-15T03:26:02.966Z,929.72
2017-12-15T03:27:02.947Z,929.67
2017-12-15T03:28:02.931Z,929.66
2017-12-15T03:29:02.919Z,929.76
2017-12-15T03:30:02.904Z,929.69
2017-12-15T03:31:02.880Z,929.7
2017-12-15T03:32:02.863Z,929.63
2017-12-15T03:33:02.845Z,929.66
2017-12-15T03:34:02.828Z,929.69
2017-12-15T03:35:02.810Z,929.67
2017-12-15T03:36:02.794Z,929.71
2017-12-15T03:37:02.777Z,929.67
2017-12-15T03:38:02.759Z,929.67
2017-12-15T03:39:02.742Z,929.66
2017-12-15T03:40:02.726Z,929.63
2017-12-15T03:41:02.708Z,929.63
2017-12-15T03:42:02.689Z,929.66
2017-12-15T03:43:02.674Z,929.67
2017-12-15T03:44:02.657Z,929.66
2017-12-15T03:45:02.646Z,929.64
2017-12-15T03:46:02.623Z,929.65
2017-12-15T03:47:02.605Z,929.65
2017-12-15T03:48:02.589Z,929.7
2017-12-15T03:49:02.573Z,929.7
2017-12-15T03:50:02.555Z,929.71
2017-12-15T03:51:02.538Z,929.68
2017-12-15T03:52:02.520Z,929.68
2017-12-15T03:53:02.503Z,929.71
2017-12-15T03:54:02.508Z,929.72
2017-12-15T03:55:02.469Z,929.68
2017-12-15T03:56:02.453Z,929.63
2017-12-15T03:57:02.435Z,929.63
2017-12-15T03:58:02.417Z,929.62
2017-12-15T03:59:02.400Z,929.56
2017-12-15T04:00:02.384Z,929.54
2017-12-15T04:01:02.367Z,929.54
2017-12-15T04:02:02.349Z,929.54
2017-12-15T04:03:02.333Z,929.52
2017-12-15T04:04:02.315Z,929.48
2017-12-15T04:05:02.297Z,929.52
2017-12-15T04:06:02.281Z,929.49
2017-12-15T04:07:02.285Z,929.45
2017-12-15T04:08:02.245Z,929.43
2017-12-15T04:09:02.230Z,929.44
2017-12-15T04:10:02.214Z,929.44
2017-12-15T04:11:02.197Z,929.4
2017-12-15T04:12:02.179Z,929.44
2017-12-15T04:13:02.161Z,929.42
2017-12-15T04:14:02.145Z,929.42
2017-12-15T04:15:02.139Z,929.42
2017-12-15T04:16:02.110Z,929.41
2017-12-15T04:17:02.096Z,929.41
2017-12-15T04:18:02.076Z,929.42
2017-12-15T04:19:02.057Z,929.36
2017-12-15T04:20:02.043Z,929.35
2017-12-15T04:21:02.024Z,929.36
2017-12-15T04:22:02.009Z,929.37
2017-12-15T04:23:01.991Z,929.33
2017-12-15T04:24:01.972Z,929.32
2017-12-15T04:25:01.957Z,929.36
2017-12-15T04:26:02.005Z,929.33
2017-12-15T04:27:01.926Z,929.31
2017-12-15T04:28:01.905Z,929.29
2017-12-15T04:29:01.889Z,929.29
2017-12-15T04:30:01.918Z,929.28
2017-12-15T04:31:01.853Z,929.31
2017-12-15T04:32:01.836Z,929.28
2017-12-15T04:33:01.821Z,929.27
2017-12-15T04:34:01.803Z,929.26
2017-12-15T04:35:01.793Z,929.23
2017-12-15T04:36:01.769Z,929.19
2017-12-15T04:37:01.752Z,929.21
2017-12-15T04:38:01.735Z,929.2
2017-12-15T04:39:01.718Z,929.16
2017-12-15T04:40:01.703Z,929.17
2017-12-15T04:41:01.725Z,929.19
2017-12-15T04:42:01.683Z,929.17
2017-12-15T04:43:01.666Z,929.17
2017-12-15T04:44:01.634Z,929.18
2017-12-15T04:45:01.616Z,929.18
2017-12-15T04:46:01.600Z,929.19
2017-12-15T04:47:01.602Z,929.16
2017-12-15T04:48:01.565Z,929.14
2017-12-15T04:49:01.548Z,929.22
2017-12-15T04:50:01.531Z,929.18
2017-12-15T04:51:01.515Z,929.17
2017-12-15T04:52:01.551Z,929.17
2017-12-15T04:53:01.479Z,929.21
2017-12-15T04:54:01.463Z,929.14
2017-12-15T04:55:01.455Z,929.2
2017-12-15T04:56:01.429Z,929.13
2017-12-15T04:57:01.412Z,929.18
2017-12-15T04:58:01.396Z,929.16
2017-12-15T04:59:01.378Z,929.11
2017-12-15T05:00:01.381Z,929.14
2017-12-15T05:01:01.343Z,929.18
2017-12-15T05:02:01.327Z,929.15
2017-12-15T05:03:01.318Z,929.19
2017-12-15T05:04:01.293Z,929.18
2017-12-15T05:05:01.278Z,929.18
2017-12-15T05:06:01.259Z,929.19
2017-12-15T05:07:01.252Z,929.21
2017-12-15T05:08:01.224Z,929.2
2017-12-15T05:09:01.208Z,929.17
2017-12-15T05:10:01.192Z,929.2
2017-12-15T05:11:01.175Z,929.23
2017-12-15T05:12:01.158Z,929.2
2017-12-15T05:13:01.210Z,929.2
2017-12-15T05:14:01.123Z,929.24
2017-12-15T05:15:01.107Z,929.26
2017-12-15T05:16:01.097Z,929.24
2017-12-15T05:17:01.072Z,929.25
2017-12-15T05:18:01.056Z,929.29
2017-12-15T05:19:01.039Z,929.24
2017-12-15T05:20:01.022Z,929.25
2017-12-15T05:21:01.005Z,929.29
2017-12-15T05:22:00.989Z,929.29
2017-12-15T05:23:00.972Z,929.28
2017-12-15T05:24:00.954Z,929.32
2017-12-15T05:25:00.938Z,929.36
2017-12-15T05:26:00.921Z,929.35
2017-12-15T05:27:00.909Z,929.32
2017-12-15T05:28:00.885Z,929.34
2017-12-15T05:29:00.869Z,929.35
2017-12-15T05:30:00.852Z,929.39
2017-12-15T05:31:00.836Z,929.4
2017-12-15T05:32:00.819Z,929.38
2017-12-15T05:33:00.808Z,929.38
2017-12-15T05:34:00.787Z,929.41
2017-12-15T05:35:00.767Z,929.43
2017-12-15T05:36:00.750Z,929.41
2017-12-15T05:37:00.734Z,929.43
2017-12-15T05:38:00.723Z,929.44
2017-12-15T05:39:00.701Z,929.47
2017-12-15T05:40:00.681Z,929.45
2017-12-15T05:41:00.667Z,929.45
2017-12-15T05:42:00.649Z,929.51
2017-12-15T05:43:00.631Z,929.49
2017-12-15T05:44:00.614Z,929.5
2017-12-15T05:45:00.598Z,929.57
2017-12-15T05:46:00.582Z,929.57
2017-12-15T05:47:00.565Z,929.59
2017-12-15T05:48:00.546Z,929.62
2017-12-15T05:49:00.531Z,929.64
2017-12-15T05:50:00.513Z,929.64
2017-12-15T05:51:00.498Z,929.63
2017-12-15T05:52:00.478Z,929.65
2017-12-15T05:53:00.474Z,929.68
2017-12-15T05:54:00.444Z,929.68
2017-12-15T05:55:00.426Z,929.71
2017-12-15T05:56:00.410Z,929.71
2017-12-15T05:57:00.394Z,929.7
2017-12-15T05:58:00.396Z,929.72
2017-12-15T05:59:00.358Z,929.75
2017-12-15T06:00:00.342Z,929.76
2017-12-15T06:01:00.324Z,929.74
2017-12-15T06:02:00.306Z,929.73
2017-12-15T06:03:00.288Z,929.74
2017-12-15T06:04:00.371Z,929.71
2017-12-15T06:05:00.274Z,929.81
2017-12-15T06:06:00.250Z,929.78
2017-12-15T06:07:00.289Z,929.8
2017-12-15T06:08:00.202Z,929.79
2017-12-15T06:09:00.184Z,929.82
2017-12-15T06:10:00.166Z,929.8
2017-12-15T06:11:00.172Z,929.83
2017-12-15T06:12:00.134Z,929.82
2017-12-15T06:13:00.113Z,929.87
2017-12-15T06:14:00.098Z,929.84
2017-12-15T06:15:00.079Z,929.86
2017-12-15T06:16:00.062Z,929.85
2017-12-15T06:17:00.043Z,929.95
2017-12-15T06:18:00.027Z,929.82
2017-12-15T06:19:00.010Z,929.86
2017-12-15T06:19:59.992Z,929.99
2017-12-15T06:20:59.977Z,930.02
2017-12-15T06:21:59.960Z,930.03
2017-12-15T06:22:59.939Z,929.99
2017-12-15T06:23:59.943Z,930.07
2017-12-15T06:24:59.904Z,930.05
2017-12-15T06:25:59.886Z,930.06
2017-12-15T06:26:59.869Z,930.12
2017-12-15T06:27:59.866Z,930.22
2017-12-15T06:28:59.834Z,930.21
2017-12-15T06:29:59.816Z,930.23
2017-12-15T06:30:59.804Z,930.27
2017-12-15T06:31:59.780Z,930.33
2017-12-15T06:32:59.766Z,930.4
2017-12-15T06:33:59.744Z,930.44
2017-12-15T06:34:59.726Z,930.43
2017-12-15T06:35:59.709Z,930.47
2017-12-15T06:36:59.693Z,930.58
2017-12-15T06:37:59.673Z,930.57
2017-12-15T06:38:59.659Z,930.58
2017-12-15T06:39:59.639Z,930.68
2017-12-15T06:40:59.619Z,930.65
2017-12-15T06:41:59.601Z,930.83
2017-12-15T06:42:59.585Z,930.76
2017-12-15T06:43:59.567Z,930.8
2017-12-15T06:44:59.547Z,930.69
2017-12-15T06:45:59.531Z,930.79
2017-12-15T06:46:59.513Z,930.84
2017-12-15T06:47:59.495Z,930.86
2017-12-15T06:48:59.477Z,930.91
2017-12-15T06:49:59.462Z,930.85
2017-12-15T06:50:59.441Z,930.87
2017-12-15T06:51:59.422Z,930.86
2017-12-15T06:52:59.405Z,930.9
2017-12-15T06:53:59.387Z,930.96
2017-12-15T06:54:59.369Z,931.01
2017-12-15T06:55:59.352Z,930.96
2017-12-15T06:56:59.333Z,931.01
2017-12-15T06:57:59.315Z,931.08
2017-12-15T06:58:59.298Z,931.08
2017-12-15T06:59:59.280Z,931.13
2017-12-15T07:00:59.464Z,931.14
2017-12-15T07:01:59.244Z,931.18
2017-12-15T07:02:59.225Z,931.22
2017-12-15T07:03:59.206Z,931.18
2017-12-15T07:04:59.189Z,931.23
2017-12-15T07:05:59.171Z,931.25
2017-12-15T07:06:59.153Z,931.32
2017-12-15T07:07:59.135Z,931.25
2017-12-15T07:08:59.119Z,931.36
2017-12-15T07:09:59.099Z,931.34
2017-12-15T07:10:59.081Z,931.36
2017-12-15T07:11:59.063Z,931.39
2017-12-15T07:12:59.045Z,931.37
2017-12-15T07:13:59.029Z,931.4
2017-12-15T07:14:59.007Z,931.5
2017-12-15T07:15:58.991Z,931.5
2017-12-15T07:16:58.974Z,931.51
2017-12-15T07:17:58.954Z,931.53
2017-12-15T07:18:58.940Z,931.55
2017-12-15T07:19:58.920Z,931.53
2017-12-15T07:20:58.900Z,931.53
2017-12-15T07:21:58.883Z,931.59
2017-12-15T07:22:58.865Z,931.61
2017-12-15T07:23:58.848Z,931.61
2017-12-15T07:24:58.829Z,931.64
2017-12-15T07:25:58.809Z,931.73
2017-12-15T07:26:58.793Z,931.67
2017-12-15T07:27:58.775Z,931.76
2017-12-15T07:28:58.756Z,931.8
2017-12-15T07:29:58.739Z,931.78
2017-12-15T07:30:58.722Z,931.8
2017-12-15T07:31:58.702Z,931.86
2017-12-15T07:32:58.686Z,931.91
2017-12-15T07:33:58.668Z,931.96
2017-12-15T07:34:58.649Z,931.97
2017-12-15T07:35:58.632Z,931.97
2017-12-15T07:36:58.613Z,931.96
2017-12-15T07:37:58.595Z,931.98
2017-12-15T07:38:58.579Z,932.03
2017-12-15T07:39:58.559Z,932.02
2017-12-15T07:40:58.541Z,932.07
2017-12-15T07:41:58.524Z,932.07
2017-12-15T07:42:58.507Z,932.16
2017-12-15T07:43:58.495Z,932.11
2017-12-15T07:44:58.471Z,932.17
2017-12-15T07:45:58.453Z,932.2
2017-12-15T07:46:58.469Z,932.2
2017-12-15T07:47:58.417Z,932.24
2017-12-15T07:48:58.398Z,932.28
2017-12-15T07:49:58.381Z,932.31
2017-12-15T07:50:58.363Z,932.35
2017-12-15T07:51:58.345Z,932.4
2017-12-15T07:52:58.333Z,932.4
2017-12-15T07:53:58.328Z,932.46
2017-12-15T07:54:58.294Z,932.48
2017-12-15T07:55:58.277Z,932.49
2017-12-15T07:56:58.261Z,932.53
2017-12-15T07:57:58.245Z,932.55
2017-12-15T07:58:58.223Z,932.59
2017-12-15T07:59:58.204Z,932.66
2017-12-15T08:00:58.187Z,932.59
2017-12-15T08:01:58.170Z,932.64
2017-12-15T08:02:58.155Z,932.64
2017-12-15T08:03:58.136Z,932.6
2017-12-15T08:04:58.116Z,932.62
2017-12-15T08:05:58.098Z,932.6
2017-12-15T08:06:58.082Z,932.65
2017-12-15T08:07:58.063Z,932.71
2017-12-15T08:08:58.053Z,932.69
2017-12-15T08:09:58.028Z,932.71
2017-12-15T08:10:58.010Z,932.77
2017-12-15T08:11:57.995Z,932.75
2017-12-15T08:12:57.975Z,932.73
2017-12-15T08:13:57.958Z,932.77
2017-12-15T08:14:57.941Z,932.79
2017-12-15T08:15:57.921Z,932.82
2017-12-15T08:16:57.905Z,932.89
2017-12-15T08:17:57.889Z,932.82
2017-12-15T08:18:57.869Z,932.86
2017-12-15T08:19:57.852Z,932.92
2017-12-15T08:20:57.835Z,932.95
2017-12-15T08:21:57.816Z,932.91
2017-12-15T08:22:57.801Z,932.9
2017-12-15T08:23:57.783Z,932.95
2017-12-15T08:24:57.764Z,932.97
2017-12-15T08:25:57.748Z,933.01
2017-12-15T08:26:57.732Z,933
2017-12-15T08:27:57.711Z,933
2017-12-15T08:28:57.695Z,933.04
2017-12-15T08:29:57.678Z,933.09
2017-12-15T08:30:57.659Z,933.11
2017-12-15T08:31:57.642Z,933.12
2017-12-15T08:32:57.643Z,933.2
2017-12-15T08:33:57.606Z,933.25
2017-12-15T08:34:57.590Z,933.24
2017-12-15T08:35:57.572Z,933.26
2017-12-15T08:36:57.556Z,933.23
2017-12-15T08:37:57.536Z,933.32
2017-12-15T08:38:57.539Z,933.3
2017-12-15T08:39:57.503Z,933.37
2017-12-15T08:40:57.486Z,933.36
2017-12-15T08:41:57.466Z,933.36
2017-12-15T08:42:57.449Z,933.32
2017-12-15T08:43:57.432Z,933.39
2017-12-15T08:44:57.420Z,933.43
2017-12-15T08:45:57.397Z,933.5
2017-12-15T08:46:57.379Z,933.46
2017-12-15T08:47:57.368Z,933.52
2017-12-15T08:48:57.345Z,933.51
2017-12-15T08:49:57.328Z,933.55
2017-12-15T08:50:57.309Z,933.56
2017-12-15T08:51:57.294Z,933.61
2017-12-15T08:52:57.274Z,933.64
2017-12-15T08:53:57.261Z,933.71
2017-12-15T08:54:57.240Z,933.71
2017-12-15T08:55:57.224Z,933.69
2017-12-15T08:56:57.206Z,933.77
2017-12-15T08:57:57.190Z,933.76
2017-12-15T08:58:57.172Z,933.8
2017-12-15T08:59:57.154Z,933.9
2017-12-15T09:00:57.138Z,933.91
2017-12-15T09:01:57.120Z,933.87
2017-12-15T09:02:57.103Z,933.87
2017-12-15T09:03:57.084Z,933.93
2017-12-15T09:04:57.067Z,933.92
2017-12-15T09:05:57.050Z,933.93
2017-12-15T09:06:57.039Z,933.96
2017-12-15T09:07:57.015Z,934.02
2017-12-15T09:08:56.997Z,934.21
2017-12-15T09:09:56.981Z,934.07
2017-12-15T09:10:56.962Z,934.14
2017-12-15T09:11:56.946Z,934.12
2017-12-15T09:12:56.975Z,934.18
2017-12-15T09:13:56.910Z,934.19
2017-12-15T09:14:56.940Z,934.25
2017-12-15T09:15:56.876Z,934.25
2017-12-15T09:16:56.860Z,934.22
2017-12-15T09:17:56.841Z,934.26
2017-12-15T09:18:56.825Z,934.25
2017-12-15T09:19:56.807Z,934.35
2017-12-15T09:20:56.815Z,934.33
2017-12-15T09:21:56.773Z,934.39
2017-12-15T09:22:56.755Z,934.34
2017-12-15T09:23:56.738Z,934.34
2017-12-15T09:24:56.725Z,934.36
2017-12-15T09:25:56.703Z,934.37
2017-12-15T09:26:56.887Z,934.4
2017-12-15T09:27:56.670Z,934.45
2017-12-15T09:28:56.651Z,934.45
2017-12-15T09:29:56.635Z,934.43
2017-12-15T09:30:56.623Z,934.45
2017-12-15T09:31:56.601Z,934.46
2017-12-15T09:32:56.586Z,934.41
2017-12-15T09:33:56.566Z,934.41
2017-12-15T09:34:56.550Z,934.46
2017-12-15T09:35:56.538Z,934.49
2017-12-15T09:36:56.516Z,934.52
2017-12-15T09:37:56.499Z,934.52
2017-12-15T09:38:56.481Z,934.54
2017-12-15T09:39:56.465Z,934.53
2017-12-15T09:40:56.446Z,934.54
2017-12-15T09:41:56.430Z,934.59
2017-12-15T09:42:56.412Z,934.54
2017-12-15T09:43:56.399Z,934.54
2017-12-15T09:44:56.377Z,934.54
2017-12-15T09:45:56.360Z,934.47
2017-12-15T09:46:56.343Z,934.48
2017-12-15T09:47:56.325Z,934.41
2017-12-15T09:48:56.308Z,934.45
2017-12-15T09:49:56.292Z,934.43
2017-12-15T09:50:56.274Z,934.5
2017-12-15T09:51:56.258Z,934.47
2017-12-15T09:52:56.240Z,934.48
2017-12-15T09:53:56.224Z,934.47
2017-12-15T09:54:56.207Z,934.52
2017-12-15T09:55:56.188Z,934.5
2017-12-15T09:56:56.173Z,934.46
2017-12-15T09:57:56.156Z,934.42
2017-12-15T09:58:56.137Z,934.4
2017-12-15T09:59:56.126Z,934.36
2017-12-15T10:00:56.103Z,934.34
2017-12-15T10:01:56.087Z,934.33
2017-12-15T10:02:56.069Z,934.36
2017-12-15T10:03:56.053Z,934.44
2017-12-15T10:04:56.037Z,934.38
2017-12-15T10:05:56.018Z,934.4
2017-12-15T10:06:56.007Z,934.42
2017-12-15T10:07:56.007Z,934.41
2017-12-15T10:08:55.979Z,934.43
2017-12-15T10:09:55.954Z,934.45
2017-12-15T10:10:55.934Z,934.45
2017-12-15T10:11:55.916Z,934.42
2017-12-15T10:12:55.899Z,934.48
2017-12-15T10:13:55.883Z,934.46
2017-12-15T10:14:55.869Z,934.46
2017-12-15T10:15:55.849Z,934.44
2017-12-15T10:16:55.831Z,934.46
2017-12-15T10:17:55.829Z,934.43
2017-12-15T10:18:55.798Z,934.42
2017-12-15T10:19:55.780Z,934.38
2017-12-15T10:20:55.765Z,934.37
2017-12-15T10:21:55.747Z,934.36
2017-12-15T10:22:55.733Z,934.39
2017-12-15T10:23:55.714Z,934.36
2017-12-15T10:24:55.696Z,934.36
2017-12-15T10:25:55.680Z,934.35
2017-12-15T10:26:55.663Z,934.41
2017-12-15T10:27:55.645Z,934.37
2017-12-15T10:28:55.628Z,934.37
2017-12-15T10:29:55.611Z,934.44
2017-12-15T10:30:55.596Z,934.36
2017-12-15T10:31:55.633Z,934.38
2017-12-15T10:32:55.562Z,934.44
2017-12-15T10:33:55.550Z,934.43
2017-12-15T10:34:55.526Z,934.44
2017-12-15T10:35:55.518Z,934.44
2017-12-15T10:36:55.494Z,934.44
2017-12-15T10:37:55.477Z,934.43
2017-12-15T10:38:55.460Z,934.49
2017-12-15T10:39:55.444Z,934.44
2017-12-15T10:40:55.426Z,934.47
2017-12-15T10:41:55.412Z,934.44
2017-12-15T10:42:55.392Z,934.48
2017-12-15T10:43:55.376Z,934.42
2017-12-15T10:44:55.378Z,934.45
2017-12-15T10:45:55.342Z,934.46
2017-12-15T10:46:55.329Z,934.51
2017-12-15T10:47:55.310Z,934.5
2017-12-15T10:48:55.293Z,934.49
2017-12-15T10:49:55.283Z,934.59
2017-12-15T10:50:55.259Z,934.61
2017-12-15T10:51:55.242Z,934.63
2017-12-15T10:52:55.226Z,934.67
2017-12-15T10:53:55.209Z,934.72
2017-12-15T10:54:55.192Z,934.73
2017-12-15T10:55:55.175Z,934.73
2017-12-15T10:56:55.158Z,934.77
2017-12-15T10:57:55.141Z,934.76
2017-12-15T10:58:55.149Z,934.83
2017-12-15T10:59:55.108Z,934.85
2017-12-15T11:00:55.114Z,934.89
2017-12-15T11:01:55.075Z,934.92
2017-12-15T11:02:55.057Z,935
2017-12-15T11:03:55.041Z,934.94
2017-12-15T11:04:55.026Z,934.92
2017-12-15T11:05:55.008Z,935
2017-12-15T11:06:54.998Z,935.08
2017-12-15T11:07:54.984Z,935.01
2017-12-15T11:08:54.958Z,935.06
2017-12-15T11:09:54.954Z,934.96
2017-12-15T11:10:54.923Z,935.01
2017-12-15T11:11:54.907Z,934.97
2017-12-15T11:12:54.890Z,934.96
2017-12-15T11:13:54.874Z,934.95
2017-12-15T11:14:54.855Z,934.93
2017-12-15T11:15:54.840Z,935.01
2017-12-15T11:16:54.844Z,934.99
2017-12-15T11:17:54.807Z,935.03
2017-12-15T11:18:54.790Z,935.05
2017-12-15T11:19:54.773Z,935.02
2017-12-15T11:20:54.758Z,935.05
2017-12-15T11:21:54.741Z,935.1
2017-12-15T11:22:54.724Z,935.11
2017-12-15T11:23:54.705Z,935.13
2017-12-15T11:24:54.693Z,935.17
2017-12-15T11:25:54.673Z,935.15
2017-12-15T11:26:54.657Z,935.19
2017-12-15T11:27:54.640Z,935.21
2017-12-15T11:28:54.624Z,935.19
2017-12-15T11:29:54.607Z,935.2
2017-12-15T11:30:54.590Z,935.28
2017-12-15T11:31:54.574Z,935.26
2017-12-15T11:32:54.557Z,935.24
2017-12-15T11:33:54.541Z,935.27
2017-12-15T11:34:54.543Z,935.27
2017-12-15T11:35:54.510Z,935.22
2017-12-15T11:36:54.491Z,935.2
2017-12-15T11:37:54.475Z,935.26
2017-12-15T11:38:54.459Z,935.22
2017-12-15T11:39:54.443Z,935.23
2017-12-15T11:40:54.424Z,935.23
2017-12-15T11:41:54.414Z,935.18
2017-12-15T11:42:54.393Z,935.14
2017-12-15T11:43:54.380Z,935.17
2017-12-15T11:44:54.362Z,935.16
2017-12-15T11:45:54.345Z,935.11
2017-12-15T11:46:54.330Z,935.09
2017-12-15T11:47:54.313Z,935.14
2017-12-15T11:48:54.297Z,935.12
2017-12-15T11:49:54.281Z,935.15
2017-12-15T11:50:54.265Z,935.17
2017-12-15T11:51:54.251Z,935.17
2017-12-15T11:52:54.233Z,935.18
2017-12-15T11:53:54.214Z,935.19
2017-12-15T11:54:54.203Z,935.19
2017-12-15T11:55:54.202Z,935.22
2017-12-15T11:56:54.167Z,935.22
2017-12-15T11:57:54.150Z,935.23
2017-12-15T11:58:54.133Z,935.23
2017-12-15T11:59:54.116Z,935.27
2017-12-15T12:00:54.101Z,935.26
2017-12-15T12:01:54.084Z,935.24
2017-12-15T12:02:54.067Z,935.28
2017-12-15T12:03:54.051Z,935.31
2017-12-15T12:04:54.035Z,935.34
2017-12-15T12:05:54.018Z,935.43
2017-12-15T12:06:54.001Z,935.36
2017-12-15T12:07:53.985Z,935.37
2017-12-15T12:08:53.982Z,935.35
2017-12-15T12:09:53.954Z,935.34
2017-12-15T12:10:53.956Z,935.34
2017-12-15T12:11:53.918Z,935.31
2017-12-15T12:12:53.902Z,935.35
2017-12-15T12:13:53.884Z,935.29
2017-12-15T12:14:53.870Z,935.31
2017-12-15T12:15:53.858Z,935.35
2017-12-15T12:16:53.835Z,935.35
2017-12-15T12:17:53.818Z,935.35
2017-12-15T12:18:53.803Z,935.31
2017-12-15T12:19:53.787Z,935.28
2017-12-15T12:20:53.769Z,935.32
2017-12-15T12:21:53.754Z,935.29
2017-12-15T12:22:53.737Z,935.34
2017-12-15T12:23:53.720Z,935.33
2017-12-15T12:24:53.702Z,935.4
2017-12-15T12:25:53.688Z,935.38
2017-12-15T12:26:53.671Z,935.46
2017-12-15T12:27:53.654Z,935.44
2017-12-15T12:28:53.645Z,935.46
2017-12-15T12:29:53.621Z,935.47
2017-12-15T12:30:53.608Z,935.49